Time;durP1;ratioP1;P1;durP2;ratioP2;P2;SDS_P1;SDS_P2;PMS_P1;PMS_P2;Temp;Humidity;BMP_temperature;BMP_pressure;BME280_temperature;BME280_humidity;BME280_pressure;Samples;Min_cycle;Max_cycle;Signal;HPM_P1;HPM_P2
2022/12/19 00:01:17;;;;;;;0.98;0.98;;;0.20;99.90;;;;;;5046587;28;20159;-79
2022/12/19 00:03:43;;;;;;;0.70;0.70;;;0.10;99.90;;;;;;5045189;28;20063;-80
2022/12/19 00:06:08;;;;;;;1.90;1.70;;;0.20;99.90;;;;;;5035496;28;20052;-82
2022/12/19 00:08:34;;;;;;;1.42;1.33;;;0.50;99.90;;;;;;5030204;28;21437;-81
2022/12/19 00:11:01;;;;;;;0.80;0.80;;;0.50;99.90;;;;;;5049922;28;20862;-82
2022/12/19 00:13:29;;;;;;;0.70;0.70;;;0.30;99.90;;;;;;5029175;28;20045;-81
2022/12/19 00:15:58;;;;;;;0.90;0.90;;;0.20;99.90;;;;;;5048708;28;20044;-82
2022/12/19 00:18:24;;;;;;;0.93;0.88;;;0.70;99.90;;;;;;5027217;28;21346;-81
2022/12/19 00:20:55;;;;;;;1.35;1.33;;;0.30;99.90;;;;;;5026240;28;20053;-81
2022/12/19 00:23:21;;;;;;;1.20;1.17;;;0.30;99.90;;;;;;5028076;28;20073;-81
2022/12/19 00:25:46;;;;;;;1.30;1.25;;;0.30;99.90;;;;;;5027414;28;20136;-82
2022/12/19 00:28:12;;;;;;;0.93;0.93;;;0.30;99.90;;;;;;5026902;28;20057;-78
2022/12/19 00:30:38;;;;;;;1.77;1.67;;;0.30;99.90;;;;;;5026669;28;20056;-83
2022/12/19 00:33:03;;;;;;;1.98;1.63;;;0.40;99.90;;;;;;5026139;28;20143;-81
2022/12/19 00:35:29;;;;;;;0.80;0.80;;;1.00;99.90;;;;;;5012833;28;20204;-80
2022/12/19 00:37:55;;;;;;;2.28;2.17;;;0.70;99.90;;;;;;5035608;28;20051;-83
2022/12/19 00:40:21;;;;;;;0.80;0.80;;;0.40;99.90;;;;;;5041380;28;20126;-81
2022/12/19 00:42:46;;;;;;;1.48;1.38;;;0.40;99.90;;;;;;5020287;28;20140;-81
2022/12/19 00:45:12;;;;;;;2.15;2.05;;;1.50;99.90;;;;;;5034847;28;20456;-81
2022/12/19 00:47:38;;;;;;;1.20;1.10;;;0.50;99.90;;;;;;5036119;28;21724;-80
2022/12/19 00:50:04;;;;;;;0.93;0.93;;;0.50;99.90;;;;;;5030768;28;20049;-82
2022/12/19 00:52:29;;;;;;;0.70;0.68;;;0.60;99.90;;;;;;5031584;28;20060;-81
2022/12/19 00:54:55;;;;;;;1.70;1.60;;;0.60;99.90;;;;;;5032737;28;20124;-81
2022/12/19 00:57:21;;;;;;;0.70;0.70;;;0.60;99.90;;;;;;5007539;28;20764;-80
2022/12/19 00:59:46;;;;;;;1.10;1.10;;;0.60;99.90;;;;;;5025671;28;21126;-81
2022/12/19 01:02:12;;;;;;;2.65;2.45;;;0.60;99.90;;;;;;5030155;28;20079;-82
2022/12/19 01:04:38;;;;;;;1.08;1.08;;;0.80;99.90;;;;;;5032231;28;20382;-82
2022/12/19 01:07:06;;;;;;;0.80;0.80;;;1.40;99.90;;;;;;5014413;28;20064;-84
2022/12/19 01:09:34;;;;;;;1.52;1.13;;;0.80;99.90;;;;;;5030497;28;20720;-79
2022/12/19 01:14:44;;;;;;;0.63;0.63;;;0.70;99.90;;;;;;5031800;28;20080;-80
2022/12/19 01:17:10;;;;;;;0.85;0.85;;;0.70;99.90;;;;;;5027838;28;20156;-81
2022/12/19 01:19:36;;;;;;;0.80;0.80;;;0.70;99.90;;;;;;5011008;28;20092;-82
2022/12/19 01:22:02;;;;;;;0.80;0.80;;;0.80;99.90;;;;;;5047327;28;20179;-80
2022/12/19 01:24:27;;;;;;;0.70;0.70;;;0.80;99.90;;;;;;5031540;28;20140;-82
2022/12/19 01:26:53;;;;;;;0.85;0.85;;;0.80;99.90;;;;;;5029511;28;20103;-79
2022/12/19 01:29:19;;;;;;;0.70;0.70;;;0.80;99.90;;;;;;5029518;28;20037;-80
2022/12/19 01:31:44;;;;;;;0.80;0.80;;;1.50;99.90;;;;;;5028544;28;20048;-81
2022/12/19 01:34:10;;;;;;;4.15;2.65;;;0.90;99.90;;;;;;5007187;28;20048;-82
2022/12/19 01:36:39;;;;;;;2.05;1.88;;;1.40;99.90;;;;;;5028261;28;20706;-80
2022/12/19 01:39:05;;;;;;;0.70;0.70;;;1.50;99.90;;;;;;5031101;28;20048;-79
2022/12/19 01:41:30;;;;;;;0.93;0.93;;;1.30;99.90;;;;;;5032108;28;20040;-79
2022/12/19 01:43:59;;;;;;;0.80;0.80;;;1.90;99.90;;;;;;5028236;28;20163;-79
2022/12/19 01:46:31;;;;;;;4.15;1.17;;;2.00;99.90;;;;;;5029946;28;20049;-80
2022/12/19 01:48:58;;;;;;;1.15;1.15;;;1.10;99.90;;;;;;5021855;28;20072;-82
2022/12/19 01:51:36;;;;;;;2.75;2.45;;;1.10;99.90;;;;;;5028553;28;20174;-78
2022/12/19 01:54:05;;;;;;;1.80;1.23;;;1.10;99.90;;;;;;5047955;28;20053;-80
2022/12/19 01:56:37;;;;;;;0.70;0.70;;;1.10;99.90;;;;;;5030127;28;20075;-81
2022/12/19 01:59:08;;;;;;;2.35;1.88;;;1.10;99.90;;;;;;5028698;28;20055;-82
2022/12/19 02:01:35;;;;;;;0.70;0.70;;;1.20;99.90;;;;;;5030238;28;20060;-82
2022/12/19 02:04:02;;;;;;;1.90;1.80;;;1.20;99.90;;;;;;5032006;28;20436;-81
2022/12/19 02:06:29;;;;;;;0.82;0.82;;;1.20;99.90;;;;;;5031245;28;20115;-80
2022/12/19 02:08:55;;;;;;;2.40;2.22;;;1.20;99.90;;;;;;5022200;28;20393;-81
2022/12/19 02:11:21;;;;;;;0.82;0.82;;;1.60;99.90;;;;;;5032826;28;20107;-80
2022/12/19 02:13:47;;;;;;;0.73;0.73;;;2.10;99.90;;;;;;5026560;28;20063;-82
2022/12/19 02:16:15;;;;;;;0.80;0.80;;;1.30;99.90;;;;;;5030780;28;20052;-81
2022/12/19 02:18:53;;;;;;;2.40;2.30;;;1.20;99.90;;;;;;5030964;28;20063;-81
2022/12/19 02:21:32;;;;;;;0.98;0.85;;;1.30;99.90;;;;;;5032250;28;20061;-80
2022/12/19 02:24:21;;;;;;;0.70;0.70;;;1.30;99.90;;;;;;5034623;28;20061;-81
2022/12/19 02:27:17;;;;;;;1.30;1.27;;;1.30;99.90;;;;;;5028215;28;20053;-80
2022/12/19 02:30:04;;;;;;;0.90;0.90;;;1.20;99.90;;;;;;5031681;28;20146;-83
2022/12/19 02:32:56;;;;;;;1.90;1.55;;;1.20;99.90;;;;;;5034633;28;20052;-81
2022/12/19 02:35:48;;;;;;;1.75;1.48;;;1.20;99.90;;;;;;5032284;28;20053;-81
2022/12/19 02:38:43;;;;;;;0.98;0.95;;;2.30;99.90;;;;;;5028112;28;20147;-82
2022/12/19 02:41:19;;;;;;;2.00;1.90;;;1.20;99.90;;;;;;5037788;28;20060;-80
2022/12/19 02:43:48;;;;;;;2.28;2.17;;;2.30;99.90;;;;;;5033864;28;20055;-80
2022/12/19 02:46:15;;;;;;;1.63;1.55;;;1.20;99.90;;;;;;5030116;28;20055;-80
2022/12/19 02:48:42;;;;;;;0.70;0.70;;;1.20;99.90;;;;;;5031701;28;20057;-79
2022/12/19 02:51:07;;;;;;;1.38;1.35;;;1.30;99.90;;;;;;5021794;28;20084;-81
2022/12/19 02:53:35;;;;;;;3.83;3.50;;;1.90;99.90;;;;;;5031327;28;20127;-82
2022/12/19 02:56:29;;;;;;;6.38;2.47;;;1.30;99.90;;;;;;5031183;28;20052;-81
2022/12/19 02:59:26;;;;;;;0.82;0.82;;;1.30;99.90;;;;;;5028506;28;20156;-80
2022/12/19 03:02:05;;;;;;;2.78;2.58;;;2.10;99.90;;;;;;5027721;28;20044;-81
2022/12/19 03:04:51;;;;;;;0.70;0.70;;;1.30;99.90;;;;;;5029940;28;20136;-80
2022/12/19 03:07:41;;;;;;;1.70;1.65;;;1.30;99.90;;;;;;5029814;28;20856;-82
2022/12/19 03:10:15;;;;;;;1.15;1.15;;;1.40;99.90;;;;;;5030162;28;20075;-81
2022/12/19 03:13:00;;;;;;;0.80;0.80;;;1.40;99.90;;;;;;5030189;28;20051;-80
2022/12/19 03:15:26;;;;;;;0.80;0.80;;;1.40;99.90;;;;;;5028339;28;20061;-82
2022/12/19 03:17:59;;;;;;;0.98;0.98;;;1.50;99.90;;;;;;5001104;28;20057;-82
2022/12/19 03:20:46;;;;;;;0.90;0.90;;;1.40;99.90;;;;;;5011513;28;20062;-81
2022/12/19 03:23:13;;;;;;;1.05;1.05;;;1.40;99.90;;;;;;5008393;28;20085;-80
2022/12/19 03:25:44;;;;;;;0.80;0.80;;;1.50;99.90;;;;;;5025742;28;20096;-82
2022/12/19 03:28:17;;;;;;;1.02;1.02;;;1.40;99.90;;;;;;5012804;28;20120;-80
2022/12/19 03:30:45;;;;;;;1.25;1.25;;;1.40;99.90;;;;;;5013477;28;20046;-81
2022/12/19 03:33:12;;;;;;;1.85;1.73;;;1.50;99.90;;;;;;5028168;28;20056;-80
2022/12/19 03:35:40;;;;;;;0.70;0.70;;;1.80;99.90;;;;;;5013167;28;20485;-81
2022/12/19 03:38:08;;;;;;;0.85;0.85;;;1.70;99.90;;;;;;5014852;28;20579;-80
2022/12/19 03:40:34;;;;;;;1.88;1.10;;;2.60;99.90;;;;;;5020001;28;20057;-80
2022/12/19 03:43:08;;;;;;;1.00;1.00;;;1.60;99.90;;;;;;4989922;28;20080;-83
2022/12/19 03:45:53;;;;;;;1.67;1.58;;;1.50;99.90;;;;;;4988378;28;20053;-80
2022/12/19 03:48:30;;;;;;;1.00;1.00;;;1.60;99.90;;;;;;5029927;28;20123;-83
2022/12/19 03:51:23;;;;;;;0.80;0.80;;;1.60;99.90;;;;;;5021877;28;20049;-81
2022/12/19 03:54:10;;;;;;;0.73;0.73;;;1.60;99.90;;;;;;5021611;28;20180;-79
2022/12/19 03:57:09;;;;;;;2.05;1.95;;;1.60;99.90;;;;;;5013767;28;20099;-80
2022/12/19 03:59:49;;;;;;;1.35;1.35;;;1.70;99.90;;;;;;4996823;28;20663;-80
2022/12/19 04:02:16;;;;;;;0.68;0.68;;;1.60;99.90;;;;;;5028783;28;20062;-80
2022/12/19 04:04:53;;;;;;;4.95;1.58;;;2.60;99.90;;;;;;5011845;28;20042;-81
2022/12/19 04:07:19;;;;;;;4.50;3.58;;;1.80;99.90;;;;;;5010714;28;20404;-81
2022/12/19 04:09:46;;;;;;;1.25;1.23;;;1.70;99.90;;;;;;5027486;28;20057;-83
2022/12/19 04:12:19;;;;;;;0.65;0.65;;;1.70;99.90;;;;;;5014270;28;20057;-82
2022/12/19 04:14:46;;;;;;;0.95;0.95;;;1.70;99.90;;;;;;5018315;28;21440;-82
2022/12/19 04:17:19;;;;;;;;;;;1.70;99.90;;;;;;5013446;28;20084;-82
2022/12/19 04:19:59;;;;;;;5.45;2.08;;;1.80;99.90;;;;;;5010955;28;19932;-80
2022/12/19 04:22:32;;;;;;;0.80;0.80;;;2.60;99.90;;;;;;5011274;28;20049;-82
2022/12/19 04:25:04;;;;;;;1.15;1.15;;;1.80;99.90;;;;;;5010554;28;20489;-82
2022/12/19 04:27:33;;;;;;;3.92;3.17;;;1.90;99.90;;;;;;5009850;28;20049;-81
2022/12/19 04:30:00;;;;;;;0.90;0.90;;;2.00;99.90;;;;;;5013902;28;20049;-83
2022/12/19 04:32:27;;;;;;;2.03;1.92;;;2.00;99.90;;;;;;4998188;28;20580;-80
2022/12/19 04:34:53;;;;;;;0.82;0.82;;;2.00;99.90;;;;;;5014435;28;20057;-80
2022/12/19 04:37:19;;;;;;;0.50;0.50;;;2.40;99.90;;;;;;5012123;28;20713;-81
2022/12/19 04:39:44;;;;;;;1.77;1.67;;;2.00;99.90;;;;;;5024908;28;20056;-81
2022/12/19 04:42:10;;;;;;;0.70;0.70;;;2.10;99.90;;;;;;5013077;28;20045;-80
2022/12/19 04:44:36;;;;;;;0.70;0.70;;;2.60;99.90;;;;;;5013800;28;21927;-80
2022/12/19 04:47:02;;;;;;;0.68;0.68;;;3.20;99.90;;;;;;5009905;28;20080;-81
2022/12/19 04:49:28;;;;;;;1.63;1.55;;;2.10;99.90;;;;;;5014847;28;20504;-83
2022/12/19 04:51:53;;;;;;;0.80;0.80;;;2.10;99.90;;;;;;5010617;28;20057;-81
2022/12/19 04:54:19;;;;;;;1.63;1.52;;;3.00;99.90;;;;;;5011350;28;20583;-82
2022/12/19 04:56:45;;;;;;;;;;;2.20;99.90;;;;;;5011470;28;20049;-82
2022/12/19 04:59:11;;;;;;;1.40;1.40;;;2.20;99.90;;;;;;5013513;28;19925;-81
2022/12/19 05:01:36;;;;;;;1.65;1.58;;;2.80;99.90;;;;;;5013709;28;20060;-79
2022/12/19 05:04:02;;;;;;;1.05;1.05;;;2.20;99.90;;;;;;5012648;28;20052;-79
2022/12/19 05:06:28;;;;;;;1.45;1.40;;;2.20;99.90;;;;;;5010163;28;20510;-80
2022/12/19 05:08:54;;;;;;;1.10;1.10;;;2.20;99.90;;;;;;5010852;28;20045;-82
2022/12/19 05:11:20;;;;;;;0.57;0.57;;;2.20;99.90;;;;;;4993554;28;20053;-82
2022/12/19 05:13:46;;;;;;;0.70;0.70;;;2.20;99.90;;;;;;5010817;28;20057;-80
2022/12/19 05:16:12;;;;;;;;;;;2.20;99.90;;;;;;5011545;28;20943;-81
2022/12/19 05:18:38;;;;;;;0.90;0.90;;;2.60;99.90;;;;;;5042016;28;19928;-80
2022/12/19 05:21:05;;;;;;;0.77;0.77;;;2.30;99.90;;;;;;5034755;28;20173;-82
2022/12/19 05:23:31;;;;;;;1.55;1.55;;;2.30;99.90;;;;;;5011665;28;20056;-81
2022/12/19 05:25:57;;;;;;;6.55;3.10;;;2.40;99.90;;;;;;5036018;28;20443;-82
2022/12/19 05:28:23;;;;;;;1.17;1.17;;;3.20;99.90;;;;;;5046697;28;20080;-80
2022/12/19 05:30:49;;;;;;;0.70;0.68;;;2.40;99.90;;;;;;5023054;28;20439;-81
2022/12/19 05:33:14;;;;;;;1.30;1.27;;;3.30;99.90;;;;;;5030908;28;20074;-81
2022/12/19 05:35:40;;;;;;;0.55;0.55;;;2.90;99.90;;;;;;5034233;28;20110;-80
2022/12/19 05:38:06;;;;;;;1.00;1.00;;;2.40;99.90;;;;;;5050329;28;20040;-82
2022/12/19 05:40:32;;;;;;;2.00;1.90;;;3.40;99.90;;;;;;5032899;28;20056;-82
2022/12/19 05:42:57;;;;;;;0.63;0.63;;;2.50;99.90;;;;;;5032531;28;20044;-81
2022/12/19 05:45:23;;;;;;;1.05;1.05;;;2.50;99.90;;;;;;5000285;28;20048;-83
2022/12/19 05:47:49;;;;;;;1.05;1.05;;;2.50;99.90;;;;;;5034399;28;20055;-83
2022/12/19 05:50:16;;;;;;;0.98;0.98;;;2.60;99.90;;;;;;5038032;28;20056;-80
2022/12/19 05:52:41;;;;;;;0.77;0.77;;;2.60;99.90;;;;;;5033370;28;20076;-80
2022/12/19 05:55:09;;;;;;;4.68;1.55;;;3.20;99.90;;;;;;5034627;28;20296;-82
2022/12/19 05:57:35;;;;;;;0.70;0.70;;;3.40;99.90;;;;;;5049990;28;20037;-82
2022/12/19 06:00:01;;;;;;;0.85;0.85;;;2.70;99.90;;;;;;5034369;28;20109;-81
2022/12/19 06:02:31;;;;;;;0.68;0.68;;;2.70;99.90;;;;;;5033320;28;20083;-81
2022/12/19 06:04:57;;;;;;;0.70;0.70;;;2.80;99.90;;;;;;5049520;28;21528;-83
2022/12/19 06:07:22;;;;;;;5.32;2.35;;;1.90;99.90;;;;;;5052160;28;20119;-83
2022/12/19 06:09:48;;;;;;;0.70;0.70;;;2.80;99.90;;;;;;5051507;28;20064;-83
2022/12/19 06:12:14;;;;;;;0.65;0.65;;;3.00;99.90;;;;;;5032947;28;20121;-81
2022/12/19 06:14:39;;;;;;;0.70;0.70;;;2.80;99.90;;;;;;5018922;28;20096;-80
2022/12/19 06:17:07;;;;;;;1.10;1.10;;;3.40;99.90;;;;;;5029823;28;20108;-83
2022/12/19 06:19:33;;;;;;;1.10;1.10;;;2.90;99.90;;;;;;5033487;28;20471;-81
2022/12/19 06:21:59;;;;;;;0.80;0.80;;;3.20;99.90;;;;;;5035188;28;20061;-82
2022/12/19 06:24:24;;;;;;;0.98;0.98;;;3.30;99.90;;;;;;5035556;28;20054;-80
2022/12/19 06:26:50;;;;;;;1.92;1.83;;;2.90;99.90;;;;;;5032258;28;20537;-83
2022/12/19 06:29:16;;;;;;;0.75;0.75;;;2.90;99.90;;;;;;4997513;28;20048;-81
2022/12/19 06:31:42;;;;;;;0.70;0.70;;;3.00;99.90;;;;;;5033603;28;20048;-81
2022/12/19 06:34:11;;;;;;;0.65;0.65;;;3.20;99.90;;;;;;5001887;28;20087;-82
2022/12/19 06:36:37;;;;;;;0.70;0.70;;;3.70;99.90;;;;;;5031749;28;20052;-80
2022/12/19 06:39:03;;;;;;;0.90;0.90;;;3.10;99.90;;;;;;5030147;28;20056;-81
2022/12/19 06:44:16;;;;;;;0.68;0.68;;;3.30;99.90;;;;;;5033221;28;20061;-83
2022/12/19 06:46:42;;;;;;;1.10;1.10;;;3.50;99.90;;;;;;5036871;28;20060;-82
2022/12/19 06:49:09;;;;;;;1.35;1.33;;;3.10;99.90;;;;;;5038339;28;20052;-81
2022/12/19 06:51:35;;;;;;;0.75;0.75;;;3.10;99.90;;;;;;5050054;28;20056;-81
2022/12/19 06:54:01;;;;;;;0.70;0.70;;;3.40;99.90;;;;;;5037740;28;20138;-82
2022/12/19 06:56:27;;;;;;;2.05;1.95;;;3.30;99.90;;;;;;5043161;28;20113;-80
2022/12/19 06:58:53;;;;;;;10.98;3.95;;;3.70;99.90;;;;;;5040283;28;20041;-82
2022/12/19 07:01:19;;;;;;;;;;;3.40;99.90;;;;;;5043404;28;20060;-81
2022/12/19 07:03:46;;;;;;;0.80;0.80;;;3.40;99.90;;;;;;5042218;28;19924;-82
2022/12/19 07:06:12;;;;;;;0.90;0.90;;;3.50;99.90;;;;;;5046573;28;20056;-81
2022/12/19 07:08:38;;;;;;;0.60;0.60;;;4.20;99.90;;;;;;5057962;28;20052;-83
2022/12/19 07:11:04;;;;;;;1.67;1.58;;;4.30;99.90;;;;;;5043919;28;20128;-82
2022/12/19 07:13:30;;;;;;;0.80;0.80;;;3.60;99.90;;;;;;5042286;28;20053;-81
2022/12/19 07:15:59;;;;;;;1.63;1.35;;;3.70;99.90;;;;;;5043942;28;20044;-83
2022/12/19 07:18:25;;;;;;;2.00;1.73;;;3.70;99.90;;;;;;5039078;28;20088;-82
2022/12/19 07:20:51;;;;;;;0.82;0.82;;;3.80;99.90;;;;;;5043797;28;20071;-83
2022/12/19 07:23:19;;;;;;;0.93;0.93;;;3.70;99.90;;;;;;5040286;28;20036;-81
2022/12/19 07:25:44;;;;;;;0.68;0.68;;;3.80;99.90;;;;;;5042577;28;20037;-82
2022/12/19 07:28:10;;;;;;;1.40;1.30;;;3.80;99.90;;;;;;5042889;28;20057;-82
2022/12/19 07:30:36;;;;;;;0.77;0.75;;;3.80;99.90;;;;;;5026606;28;20056;-82
2022/12/19 07:33:02;;;;;;;0.80;0.80;;;3.80;99.90;;;;;;5038190;28;20053;-82
2022/12/19 07:35:27;;;;;;;0.80;0.80;;;3.80;99.90;;;;;;5027609;28;20067;-82
2022/12/19 07:37:53;;;;;;;0.63;0.63;;;3.90;99.90;;;;;;5034662;28;20060;-81
2022/12/19 07:40:19;;;;;;;0.60;0.60;;;3.90;99.90;;;;;;5016696;28;20036;-80
2022/12/19 07:42:45;;;;;;;1.23;1.23;;;3.90;99.90;;;;;;5028486;28;20064;-81
2022/12/19 07:45:11;;;;;;;0.50;0.50;;;4.50;99.90;;;;;;5032739;28;20106;-81
2022/12/19 07:47:37;;;;;;;;;;;4.30;99.90;;;;;;5037515;28;20463;-82
2022/12/19 07:50:03;;;;;;;0.65;0.65;;;4.20;99.90;;;;;;5033334;28;19929;-83
2022/12/19 07:52:28;;;;;;;;;;;4.00;99.90;;;;;;5034530;28;20063;-81
2022/12/19 07:54:54;;;;;;;0.70;0.70;;;4.80;99.90;;;;;;5029994;28;19928;-81
2022/12/19 07:57:20;;;;;;;0.40;0.40;;;4.10;99.90;;;;;;5035928;28;20892;-80
2022/12/19 07:59:46;;;;;;;0.60;0.60;;;4.10;99.90;;;;;;5051890;28;20064;-80
2022/12/19 08:02:12;;;;;;;0.95;0.95;;;4.10;99.90;;;;;;5034924;28;20071;-82
2022/12/19 08:04:37;;;;;;;2.78;1.52;;;4.40;99.90;;;;;;5018905;28;20066;-81
2022/12/19 08:07:03;;;;;;;0.52;0.52;;;4.10;99.90;;;;;;5027631;28;20032;-82
2022/12/19 08:09:31;;;;;;;0.98;0.98;;;4.10;99.90;;;;;;5045004;28;20040;-83
2022/12/19 08:11:57;;;;;;;0.60;0.60;;;4.10;99.90;;;;;;5036557;28;20111;-83
2022/12/19 08:14:23;;;;;;;1.05;0.98;;;4.20;99.90;;;;;;5060081;28;20084;-82
2022/12/19 08:16:49;;;;;;;0.68;0.68;;;4.20;99.90;;;;;;5042478;28;20402;-83
2022/12/19 08:19:15;;;;;;;0.93;0.93;;;4.20;99.90;;;;;;5040126;28;20060;-82
2022/12/19 08:21:40;;;;;;;1.00;1.00;;;4.60;99.90;;;;;;5045405;28;20048;-83
2022/12/19 08:24:06;;;;;;;7.40;2.30;;;4.40;99.90;;;;;;5030168;28;20473;-82
2022/12/19 08:26:32;;;;;;;5.25;1.83;;;4.20;99.90;;;;;;5027067;28;20040;-84
2022/12/19 08:29:01;;;;;;;3.40;1.92;;;5.00;99.90;;;;;;5044048;28;20116;-83
2022/12/19 08:31:27;;;;;;;0.63;0.63;;;4.90;99.90;;;;;;5040922;28;20060;-83
2022/12/19 08:33:55;;;;;;;0.50;0.50;;;4.30;99.90;;;;;;5043119;28;20072;-82
2022/12/19 08:36:21;;;;;;;0.60;0.60;;;4.50;99.90;;;;;;5039830;28;20055;-81
2022/12/19 08:38:51;;;;;;;0.73;0.73;;;4.40;99.90;;;;;;5050500;28;20036;-81
2022/12/19 08:41:17;;;;;;;0.60;0.60;;;4.80;99.90;;;;;;5018898;28;20059;-82
2022/12/19 08:43:48;;;;;;;0.70;0.70;;;4.60;99.90;;;;;;5040502;28;20052;-83
2022/12/19 08:46:14;;;;;;;0.60;0.60;;;4.50;99.90;;;;;;5030015;28;21343;-83
2022/12/19 08:48:40;;;;;;;0.70;0.70;;;5.00;99.90;;;;;;5042872;28;20060;-83
2022/12/19 08:51:07;;;;;;;0.70;0.70;;;4.50;99.90;;;;;;5017850;28;20537;-82
2022/12/19 08:53:36;;;;;;;0.75;0.75;;;5.70;99.90;;;;;;5026822;28;20049;-83
2022/12/19 08:56:07;;;;;;;0.60;0.60;;;4.60;99.90;;;;;;5055809;28;20055;-81
2022/12/19 08:58:33;;;;;;;0.77;0.77;;;4.60;99.90;;;;;;5050902;28;20028;-82
2022/12/19 09:01:00;;;;;;;;;;;4.70;99.90;;;;;;5041205;28;20068;-81
2022/12/19 09:03:26;;;;;;;0.50;0.50;;;4.70;99.90;;;;;;5051405;28;20008;-82
2022/12/19 09:05:59;;;;;;;0.68;0.68;;;4.70;99.90;;;;;;5061891;28;20543;-82
2022/12/19 09:08:27;;;;;;;0.60;0.60;;;4.20;99.90;;;;;;5057706;28;20091;-84
2022/12/19 09:11:00;;;;;;;0.70;0.70;;;5.00;99.90;;;;;;5045865;28;20613;-83
2022/12/19 09:13:27;;;;;;;0.60;0.60;;;4.90;99.90;;;;;;5038153;28;20052;-84
2022/12/19 09:16:13;;;;;;;0.70;0.70;;;4.90;99.90;;;;;;5059354;28;20055;-84
2022/12/19 09:18:40;;;;;;;0.70;0.70;;;4.90;99.90;;;;;;5040839;28;20059;-84
2022/12/19 09:21:06;;;;;;;0.60;0.60;;;5.00;99.90;;;;;;5036614;28;21846;-83
2022/12/19 09:23:32;;;;;;;;;;;5.00;99.90;;;;;;5046642;28;20153;-84
2022/12/19 09:26:03;;;;;;;1.02;0.93;;;5.00;99.90;;;;;;5037819;28;20275;-84
2022/12/19 09:28:29;;;;;;;0.60;0.60;;;5.20;99.90;;;;;;5039262;28;21059;-86
2022/12/19 09:31:00;;;;;;;0.63;0.63;;;5.20;99.90;;;;;;5040832;28;20048;-84
2022/12/19 09:33:27;;;;;;;0.60;0.60;;;4.50;99.90;;;;;;5038752;28;20039;-84
2022/12/19 09:35:55;;;;;;;2.35;2.25;;;5.30;99.90;;;;;;5014670;28;20050;-84
2022/12/19 09:38:22;;;;;;;0.65;0.65;;;5.30;99.90;;;;;;5035459;28;20418;-81
2022/12/19 09:41:17;;;;;;;0.57;0.57;;;5.40;99.90;;;;;;5035056;28;20110;-82
2022/12/19 09:43:57;;;;;;;0.50;0.50;;;5.30;99.90;;;;;;5031582;28;20185;-83
2022/12/19 09:46:35;;;;;;;0.90;0.90;;;5.50;99.90;;;;;;5029846;28;20364;-84
2022/12/19 09:49:02;;;;;;;0.77;0.77;;;5.50;99.90;;;;;;5034382;28;20049;-84
2022/12/19 09:51:36;;;;;;;0.70;0.70;;;5.50;99.90;;;;;;5032096;28;20626;-84
2022/12/19 09:54:11;;;;;;;0.80;0.80;;;5.60;99.90;;;;;;5033332;28;20111;-82
2022/12/19 09:56:39;;;;;;;1.13;1.13;;;5.60;99.90;;;;;;5034721;28;20044;-84
2022/12/19 09:59:11;;;;;;;0.80;0.80;;;5.60;99.90;;;;;;5040357;28;20142;-83
2022/12/19 10:02:02;;;;;;;0.70;0.70;;;5.70;99.90;;;;;;5035358;28;20044;-83
2022/12/19 10:04:32;;;;;;;0.60;0.60;;;5.70;99.90;;;;;;5036837;28;20100;-83
2022/12/19 10:06:57;;;;;;;0.55;0.55;;;5.80;99.90;;;;;;5045376;28;20051;-83
2022/12/19 10:09:31;;;;;;;0.60;0.60;;;5.80;99.90;;;;;;5062618;28;20044;-84
2022/12/19 10:12:09;;;;;;;1.85;1.77;;;5.90;99.90;;;;;;5043541;28;20045;-84
2022/12/19 10:14:48;;;;;;;1.08;1.08;;;5.90;99.90;;;;;;5045164;28;20060;-82
2022/12/19 10:17:17;;;;;;;3.55;1.00;;;6.00;99.90;;;;;;5041636;28;21490;-84
2022/12/19 10:20:02;;;;;;;1.20;1.20;;;6.00;99.90;;;;;;5039129;28;20048;-84
2022/12/19 10:23:03;;;;;;;2.88;2.60;;;6.10;99.90;;;;;;5026222;28;20059;-85
2022/12/19 10:25:34;;;;;;;0.82;0.82;;;6.10;99.90;;;;;;5023681;28;20056;-84
2022/12/19 10:28:27;;;;;;;0.85;0.68;;;6.20;99.90;;;;;;5043262;28;20048;-85
2022/12/19 10:31:28;;;;;;;1.00;0.75;;;6.20;99.90;;;;;;5043849;28;20094;-84
2022/12/19 10:34:06;;;;;;;0.88;0.77;;;6.30;99.90;;;;;;5024392;28;20077;-85
2022/12/19 10:36:41;;;;;;;0.60;0.60;;;6.30;99.90;;;;;;5046837;28;20048;-83
2022/12/19 10:39:34;;;;;;;0.50;0.50;;;6.40;99.90;;;;;;5068453;28;20064;-83
2022/12/19 10:42:24;;;;;;;0.70;0.70;;;6.50;99.90;;;;;;5050249;28;20064;-84
2022/12/19 10:44:53;;;;;;;0.65;0.65;;;6.50;99.90;;;;;;5051722;28;20040;-85
2022/12/19 10:47:19;;;;;;;1.08;1.08;;;6.60;99.90;;;;;;5045830;28;20056;-86
2022/12/19 10:49:45;;;;;;;0.63;0.63;;;6.60;99.90;;;;;;5033215;28;20078;-85
2022/12/19 10:52:11;;;;;;;0.60;0.60;;;6.60;99.90;;;;;;5025968;28;20044;-83
2022/12/19 10:54:37;;;;;;;0.60;0.60;;;6.60;99.90;;;;;;5028459;28;20451;-83
2022/12/19 10:57:21;;;;;;;0.85;0.65;;;6.70;99.90;;;;;;5043109;28;20091;-84
2022/12/19 11:00:26;;;;;;;2.00;1.90;;;6.70;99.90;;;;;;5043979;28;20041;-84
2022/12/19 11:03:11;;;;;;;1.00;0.93;;;6.80;99.90;;;;;;4980930;28;20050;-84
2022/12/19 11:05:48;;;;;;;0.50;0.50;;;6.80;99.90;;;;;;4979013;28;20046;-84
2022/12/19 11:08:22;;;;;;;;;;;6.80;99.90;;;;;;5009754;28;20266;-84
2022/12/19 11:11:09;;;;;;;0.60;0.60;;;6.80;99.90;;;;;;5054236;28;19964;-84
2022/12/19 11:13:46;;;;;;;0.55;0.55;;;6.90;99.90;;;;;;5020203;28;20047;-85
2022/12/19 11:16:19;;;;;;;0.88;0.88;;;6.90;99.90;;;;;;5045718;28;20036;-84
2022/12/19 11:18:47;;;;;;;0.57;0.57;;;6.90;99.90;;;;;;5027944;28;20065;-86
2022/12/19 11:21:12;;;;;;;0.70;0.70;;;7.00;99.90;;;;;;5059764;28;20057;-84
2022/12/19 11:24:10;;;;;;;0.52;0.52;;;7.10;99.90;;;;;;5041486;28;20457;-83
2022/12/19 11:26:39;;;;;;;0.60;0.60;;;6.90;99.90;;;;;;5039989;28;20049;-85
2022/12/19 11:29:44;;;;;;;0.50;0.50;;;7.00;99.90;;;;;;5039659;28;20070;-84
2022/12/19 11:32:34;;;;;;;0.93;0.93;;;7.00;99.90;;;;;;5040639;28;20050;-84
2022/12/19 11:35:04;;;;;;;0.70;0.70;;;7.00;99.90;;;;;;5029127;28;20052;-83
2022/12/19 11:37:39;;;;;;;0.90;0.90;;;7.00;99.90;;;;;;5040945;28;20056;-85
2022/12/19 11:40:23;;;;;;;0.90;0.90;;;6.50;99.90;;;;;;5040471;28;20056;-86
2022/12/19 11:43:00;;;;;;;1.13;0.80;;;7.10;99.90;;;;;;5042129;28;20033;-87
2022/12/19 11:45:51;;;;;;;1.10;0.80;;;7.20;99.90;;;;;;5039310;28;20037;-86
2022/12/19 11:48:20;;;;;;;0.55;0.55;;;7.30;99.90;;;;;;5041932;28;20481;-87
2022/12/19 11:51:00;;;;;;;0.60;0.60;;;7.40;99.90;;;;;;5039619;28;20045;-84
2022/12/19 11:53:34;;;;;;;0.73;0.73;;;7.40;99.90;;;;;;5037127;28;20087;-88
2022/12/19 11:56:10;;;;;;;0.50;0.50;;;7.40;99.90;;;;;;5034597;28;20049;-86
2022/12/19 11:58:36;;;;;;;0.60;0.60;;;7.50;99.90;;;;;;5034884;28;20043;-86
2022/12/19 12:01:26;;;;;;;0.50;0.50;;;7.50;99.90;;;;;;5040525;28;20036;-86
2022/12/19 12:04:12;;;;;;;1.20;1.20;;;7.60;99.90;;;;;;5029251;28;20037;-85
2022/12/19 12:06:46;;;;;;;1.40;1.40;;;7.60;99.90;;;;;;5034536;28;20916;-87
2022/12/19 12:09:37;;;;;;;0.40;0.40;;;7.60;99.90;;;;;;5019521;28;20510;-86
2022/12/19 12:12:10;;;;;;;1.35;1.25;;;7.70;99.90;;;;;;5043110;28;20056;-85
2022/12/19 12:15:01;;;;;;;0.88;0.88;;;7.60;99.90;;;;;;5034914;28;20176;-87
2022/12/19 12:17:41;;;;;;;2.05;1.95;;;7.70;99.90;;;;;;5038385;28;20060;-88
2022/12/19 12:20:39;;;;;;;0.65;0.65;;;7.70;99.90;;;;;;5039173;28;20115;-85
2022/12/19 12:23:24;;;;;;;0.65;0.65;;;7.70;99.90;;;;;;5037853;28;20071;-85
2022/12/19 12:26:12;;;;;;;1.95;1.65;;;7.70;99.90;;;;;;5026484;28;20059;-86
2022/12/19 12:29:16;;;;;;;1.90;0.88;;;7.70;99.90;;;;;;5043841;28;20045;-85
2022/12/19 12:32:03;;;;;;;0.93;0.93;;;7.80;99.90;;;;;;5009270;28;20052;-87
2022/12/19 12:34:58;;;;;;;;;;;7.90;99.90;;;;;;4989689;28;20491;-84
2022/12/19 12:37:29;;;;;;;0.43;0.43;;;7.90;99.90;;;;;;5019266;28;20027;-85
2022/12/19 12:40:19;;;;;;;1.30;1.23;;;7.90;99.90;;;;;;5044230;28;20064;-84
2022/12/19 12:42:50;;;;;;;1.30;1.20;;;8.00;99.90;;;;;;5042453;28;20063;-83
2022/12/19 12:45:24;;;;;;;0.80;0.80;;;8.00;99.90;;;;;;5037870;28;20068;-87
2022/12/19 12:47:52;;;;;;;1.35;1.08;;;8.00;99.90;;;;;;5034801;28;20492;-86
2022/12/19 12:50:23;;;;;;;0.63;0.63;;;7.90;99.90;;;;;;5032244;28;20084;-86
2022/12/19 12:52:53;;;;;;;0.50;0.50;;;7.80;99.90;;;;;;5034542;28;20112;-85
2022/12/19 12:55:33;;;;;;;1.45;0.68;;;7.90;99.90;;;;;;5032183;28;20048;-85
2022/12/19 12:58:00;;;;;;;0.60;0.60;;;7.90;99.90;;;;;;5034618;28;20051;-85
2022/12/19 13:00:28;;;;;;;0.50;0.50;;;7.90;99.90;;;;;;5032010;28;20045;-87
2022/12/19 13:03:17;;;;;;;0.82;0.82;;;7.90;99.90;;;;;;5030400;28;20056;-84
2022/12/19 13:05:54;;;;;;;0.90;0.90;;;7.90;99.90;;;;;;5033531;28;20797;-87
2022/12/19 13:08:43;;;;;;;0.95;0.90;;;8.00;99.90;;;;;;5033152;28;20044;-86
2022/12/19 13:14:04;;;;;;;0.50;0.50;;;8.00;99.90;;;;;;5045378;28;20052;-85
2022/12/19 13:16:42;;;;;;;0.50;0.50;;;8.00;99.90;;;;;;5031836;28;20083;-84
2022/12/19 13:19:16;;;;;;;0.50;0.50;;;8.10;99.90;;;;;;5032303;28;20053;-86
2022/12/19 13:22:03;;;;;;;1.20;1.10;;;8.10;99.90;;;;;;5028193;28;20164;-85
2022/12/19 13:24:44;;;;;;;0.50;0.50;;;8.10;99.90;;;;;;5036127;28;20049;-86
2022/12/19 13:27:19;;;;;;;0.63;0.63;;;8.10;99.90;;;;;;5032562;28;20094;-83
2022/12/19 13:29:58;;;;;;;0.43;0.43;;;8.10;99.90;;;;;;5027241;28;20047;-84
2022/12/19 13:32:40;;;;;;;0.55;0.55;;;8.10;99.90;;;;;;5030359;28;20900;-84